Baltic Marshall — C4KD2 — position and weather

sailwx.info

Track history (hours):
 
Tides and Currents Weather Stations Pressure Air Temp Water Temp Dewpoint Dewpoint Depression Visibility Wind Speed Wind Dir Waves Ship Positions

Baltic Marshall

Last reported at 2016-Dec-03 05:32 UTC. Time now 2016-Dec-04 22:28 UTC.
Position N 59°41' E 024°12'.

Length 183 m; draft 7.8 m.

Type: Ship. MMSI: 212118000.

Date/timePositionNaut miles runAvg speedWind from/ knotsBaromVisibWave heightAir tempDewpointWater temp
2016-Dec-03 05:32N 59°41' E 024°12'1313.5
2016-Dec-03 04:32N 59°37' E 023°46'1313.3
2016-Dec-03 03:33N 59°33' E 023°22'  
2016-Nov-26 09:27N 55°39' E 015°28'1214.0
2016-Nov-26 08:33N 55°33' E 015°08'1414.1
2016-Nov-26 07:33N 55°27' E 014°46'1413.8
2016-Nov-26 06:33N 55°17' E 014°29'1313.1
2016-Nov-26 05:34N 55°09' E 014°11'1414.0
2016-Nov-26 04:33N 55°11' E 013°46'1414.1
2016-Nov-26 03:33N 55°12' E 013°21'1414.5
2016-Nov-26 02:33N 55°15' E 012°56'1212.1
2016-Nov-26 01:34N 55°21' E 012°38'1313.0
2016-Nov-26 00:33N 55°34' E 012°42'1312.6
2016-Nov-25 23:33N 55°46' E 012°42'1414.4
2016-Nov-25 22:33N 56°01' E 012°40'1312.5
2016-Nov-25 21:33N 56°10' E 012°24'1414.4
2016-Nov-25 20:33N 56°18' E 012°03'1414.4
2016-Nov-25 19:33N 56°32' E 011°58'1414.3
2016-Nov-25 18:33N 56°46' E 011°51'1514.7
2016-Nov-25 17:32N 57°00' E 011°42'1414.8
2016-Nov-25 16:34N 57°14' E 011°33'1414.2
2016-Nov-25 15:34N 57°27' E 011°25'1515.2
2016-Nov-25 14:34N 57°38' E 011°04'1514.5
2016-Nov-25 13:33N 57°47' E 010°43'1413.9
2016-Nov-25 12:33N 57°47' E 010°17'1414.1
2016-Nov-25 11:33N 57°46' E 009°50'1413.8
2016-Nov-25 10:33N 57°40' E 009°27'25013.0
2016-Nov-24 15:23N 54°18' E 005°05'1313.2
2016-Nov-24 14:25N 54°09' E 004°50'1112.8
2016-Nov-24 13:33N 54°00' E 004°38'3912.7
2016-Nov-24 10:27N 53°32' E 003°51'1412.6
2016-Nov-24 09:23N 53°21' E 003°39'2512.6
2016-Nov-24 07:22N 52°58' E 003°23'1512.2
2016-Nov-24 06:10N 52°43' E 003°19'1911.9
2016-Nov-24 04:33N 52°24' E 003°17'1111.4
2016-Nov-24 03:33N 52°13' E 003°23'1110.6
2016-Nov-24 02:33N 52°07' E 003°37'1111.0
2016-Nov-24 01:33N 52°03' E 003°53'1111.0
2016-Nov-24 00:33N 51°57' E 004°09'3 3.1
2016-Nov-23 23:33N 51°55' E 004°12'0 0.0
2016-Nov-23 22:31N 51°55' E 004°12'  
Track history (hours):
 
Tides and Currents Weather Stations Pressure Air Temp Water Temp Dewpoint Dewpoint Depression Visibility Wind Speed Wind Dir Waves Ship Positions

Baltic Marshall

Last reported at 2016-Dec-03 05:32 UTC. Time now 2016-Dec-04 22:28 UTC.
Position N 59°41' E 024°12'.

Length 183 m; draft 7.8 m.

Type: Ship. MMSI: 212118000.

Date/timePositionNaut miles runAvg speedWind from/ knotsBaromVisibWave heightAir tempDewpointWater temp
2016-Dec-03 05:32N 59°41' E 024°12'1313.5
2016-Dec-03 04:32N 59°37' E 023°46'1313.3
2016-Dec-03 03:33N 59°33' E 023°22'  
2016-Nov-26 09:27N 55°39' E 015°28'1214.0
2016-Nov-26 08:33N 55°33' E 015°08'1414.1
2016-Nov-26 07:33N 55°27' E 014°46'1413.8
2016-Nov-26 06:33N 55°17' E 014°29'1313.1
2016-Nov-26 05:34N 55°09' E 014°11'1414.0
2016-Nov-26 04:33N 55°11' E 013°46'1414.1
2016-Nov-26 03:33N 55°12' E 013°21'1414.5
2016-Nov-26 02:33N 55°15' E 012°56'1212.1
2016-Nov-26 01:34N 55°21' E 012°38'1313.0
2016-Nov-26 00:33N 55°34' E 012°42'1312.6
2016-Nov-25 23:33N 55°46' E 012°42'1414.4
2016-Nov-25 22:33N 56°01' E 012°40'1312.5
2016-Nov-25 21:33N 56°10' E 012°24'1414.4
2016-Nov-25 20:33N 56°18' E 012°03'1414.4
2016-Nov-25 19:33N 56°32' E 011°58'1414.3
2016-Nov-25 18:33N 56°46' E 011°51'1514.7
2016-Nov-25 17:32N 57°00' E 011°42'1414.8
2016-Nov-25 16:34N 57°14' E 011°33'1414.2
2016-Nov-25 15:34N 57°27' E 011°25'1515.2
2016-Nov-25 14:34N 57°38' E 011°04'1514.5
2016-Nov-25 13:33N 57°47' E 010°43'1413.9
2016-Nov-25 12:33N 57°47' E 010°17'1414.1
2016-Nov-25 11:33N 57°46' E 009°50'1413.8
2016-Nov-25 10:33N 57°40' E 009°27'25013.0
2016-Nov-24 15:23N 54°18' E 005°05'1313.2
2016-Nov-24 14:25N 54°09' E 004°50'1112.8
2016-Nov-24 13:33N 54°00' E 004°38'3912.7
2016-Nov-24 10:27N 53°32' E 003°51'1412.6
2016-Nov-24 09:23N 53°21' E 003°39'2512.6
2016-Nov-24 07:22N 52°58' E 003°23'1512.2
2016-Nov-24 06:10N 52°43' E 003°19'1911.9
2016-Nov-24 04:33N 52°24' E 003°17'1111.4
2016-Nov-24 03:33N 52°13' E 003°23'1110.6
2016-Nov-24 02:33N 52°07' E 003°37'1111.0
2016-Nov-24 01:33N 52°03' E 003°53'1111.0
2016-Nov-24 00:33N 51°57' E 004°09'3 3.1
2016-Nov-23 23:33N 51°55' E 004°12'0 0.0
2016-Nov-23 22:31N 51°55' E 004°12'  

Dump ship's entire track history